HSKA

Kassala Airport

Kassala, Sudan
TAF HSKA 251700Z 2518/2624 VRB03KT CAVOK
Issued Valid From Valid To
Apr-25 @ 17:00 UTC
(11 hours ago)
Apr-25 @ 18:00 UTC
(10 hours ago)
Apr-27 @ 00:00 UTC
(in 20 hours)
Apr-25 @ 18:00 to Apr-27 @ 00:00
TAF HSKA 251700Z 2518/2624 VRB03KT CAVOK
Wind Visibility Clouds Conditions
Variable at 3 knots 10,000+ meters
  • No significant clouds
TAF HSKA 251700Z 2518/2624 VRB03KT CAVOK
Issued Apr-25 @ 17:00 UTC
(11 hours ago)
Valid From Apr-25 @ 18:00 UTC
(10 hours ago)
Valid To Apr-27 @ 00:00 UTC
(in 20 hours)
Apr-25 @ 18:00 - Apr-27 @ 00:00
Wind Visibility
Variable at 3 knots 10,000+ meters
Clouds
  • No significant clouds
Conditions